Time;durP1;ratioP1;P1;durP2;ratioP2;P2;SDS_P1;SDS_P2;PMS_P1;PMS_P2;Temp;Humidity;BMP_temperature;BMP_pressure;BME280_temperature;BME280_humidity;BME280_pressure;Samples;Min_cycle;Max_cycle;Signal;HPM_P1;HPM_P2
2022/02/27 00:00:16;;;;;;;30.33;10.73;;;3.20;99.90;;;;;;5077267;28;20957;-80
2022/02/27 00:02:44;;;;;;;18.37;9.90;;;3.10;99.90;;;;;;5076882;28;20442;-79
2022/02/27 00:05:11;;;;;;;22.27;10.17;;;3.00;99.90;;;;;;5076628;28;20449;-80
2022/02/27 00:07:38;;;;;;;24.80;10.17;;;3.00;99.90;;;;;;5078069;28;20427;-80
2022/02/27 00:10:07;;;;;;;22.33;10.27;;;3.00;99.90;;;;;;5077419;28;20482;-79
2022/02/27 00:12:34;;;;;;;20.97;9.53;;;3.00;99.90;;;;;;5078429;28;20779;-80
2022/02/27 00:15:01;;;;;;;21.47;9.53;;;2.90;99.90;;;;;;5077842;28;20435;-80
2022/02/27 00:17:28;;;;;;;24.08;12.75;;;2.80;99.90;;;;;;5075210;28;20790;-79
2022/02/27 00:19:55;;;;;;;21.37;10.83;;;2.90;99.90;;;;;;5076974;28;20251;-79
2022/02/27 00:22:22;;;;;;;22.63;10.97;;;2.80;99.90;;;;;;5075523;28;20435;-79
2022/02/27 00:24:52;;;;;;;22.33;9.43;;;2.80;99.90;;;;;;5077135;28;20442;-79
2022/02/27 00:27:20;;;;;;;22.57;9.00;;;2.70;99.90;;;;;;5075989;28;20434;-80
2022/02/27 00:29:55;;;;;;;19.10;9.87;;;2.70;99.90;;;;;;5075942;28;20477;-80
2022/02/27 00:32:24;;;;;;;21.13;8.90;;;2.60;99.90;;;;;;5076322;28;20458;-79
2022/02/27 00:34:51;;;;;;;20.43;8.40;;;2.50;99.90;;;;;;5076917;28;20449;-80
2022/02/27 00:37:18;;;;;;;21.63;9.10;;;2.50;99.90;;;;;;5077270;28;20827;-80
2022/02/27 00:39:45;;;;;;;15.70;8.77;;;2.60;99.90;;;;;;5077696;28;20461;-80
2022/02/27 00:42:14;;;;;;;20.60;10.73;;;2.50;99.90;;;;;;5076212;28;20779;-80
2022/02/27 00:44:42;;;;;;;17.83;8.77;;;2.60;99.90;;;;;;5076652;28;20229;-80
2022/02/27 00:47:09;;;;;;;18.83;9.10;;;2.70;99.90;;;;;;5077829;28;20474;-79
2022/02/27 00:49:36;;;;;;;15.27;8.70;;;2.70;99.90;;;;;;5077492;28;20442;-79
2022/02/27 00:52:04;;;;;;;16.30;8.20;;;2.70;99.90;;;;;;5077480;28;20906;-80
2022/02/27 00:54:31;;;;;;;16.57;7.90;;;2.50;99.90;;;;;;5078266;28;20435;-79
2022/02/27 00:56:58;;;;;;;17.13;8.20;;;2.50;99.90;;;;;;5078360;28;20431;-80
2022/02/27 00:59:25;;;;;;;16.30;7.43;;;2.50;99.90;;;;;;5076699;28;20446;-80
2022/02/27 01:01:53;;;;;;;22.47;7.87;;;2.50;99.90;;;;;;5078231;28;20447;-80
2022/02/27 01:04:20;;;;;;;16.57;7.43;;;2.50;99.90;;;;;;5077773;28;20438;-79
2022/02/27 01:06:46;;;;;;;16.83;7.17;;;2.50;99.90;;;;;;5077497;28;20438;-80
2022/02/27 01:09:13;;;;;;;20.67;6.70;;;2.50;99.90;;;;;;5077503;28;20442;-80
2022/02/27 01:11:40;;;;;;;21.50;7.50;;;2.40;99.90;;;;;;5076605;28;20487;-79
2022/02/27 01:14:07;;;;;;;19.17;7.50;;;2.50;99.90;;;;;;5075756;28;20450;-78
2022/02/27 01:16:34;;;;;;;16.47;6.77;;;2.50;99.90;;;;;;5074346;28;20453;-78
2022/02/27 01:19:04;;;;;;;21.57;7.97;;;2.40;99.90;;;;;;5075420;28;20446;-78
2022/02/27 01:21:33;;;;;;;15.07;6.73;;;2.50;99.90;;;;;;5075232;28;20443;-78
2022/02/27 01:24:00;;;;;;;12.60;6.93;;;2.50;99.90;;;;;;5075722;28;20451;-78
2022/02/27 01:26:28;;;;;;;17.33;6.77;;;2.50;99.90;;;;;;5075797;28;20427;-78
2022/02/27 01:28:55;;;;;;;14.67;6.80;;;2.50;99.90;;;;;;5075931;28;20960;-78
2022/02/27 01:31:22;;;;;;;16.88;9.07;;;2.40;99.90;;;;;;5075448;28;20440;-78
2022/02/27 01:33:51;;;;;;;14.33;6.73;;;2.50;99.90;;;;;;5076429;28;20206;-78
2022/02/27 01:36:19;;;;;;;16.60;6.87;;;2.50;99.90;;;;;;5076066;28;20434;-78
2022/02/27 01:38:47;;;;;;;13.33;7.50;;;2.50;99.90;;;;;;5075426;28;20438;-78
2022/02/27 01:41:14;;;;;;;15.10;7.23;;;2.50;99.90;;;;;;5076860;28;20427;-78
2022/02/27 01:43:42;;;;;;;19.40;7.20;;;2.40;99.90;;;;;;5076245;28;20453;-77
2022/02/27 01:46:10;;;;;;;16.13;6.77;;;2.40;99.90;;;;;;5074558;28;20487;-78
2022/02/27 01:48:37;;;;;;;14.57;6.40;;;2.30;99.90;;;;;;5076466;28;20817;-82
2022/02/27 01:51:07;;;;;;;15.17;7.33;;;2.20;99.90;;;;;;5075447;28;20466;-78
2022/02/27 01:53:35;;;;;;;19.97;7.43;;;2.20;99.90;;;;;;5074499;28;20517;-77
2022/02/27 01:56:02;;;;;;;14.95;8.57;;;2.10;99.90;;;;;;5078034;28;20431;-78
2022/02/27 01:58:30;;;;;;;19.83;7.77;;;2.20;99.90;;;;;;5078461;28;20213;-82
2022/02/27 02:00:58;;;;;;;21.40;7.53;;;2.20;99.90;;;;;;5078494;28;20902;-82
2022/02/27 02:03:25;;;;;;;14.37;6.00;;;2.20;99.90;;;;;;5077809;28;20450;-78
2022/02/27 02:05:54;;;;;;;18.17;6.67;;;2.20;99.90;;;;;;5077889;28;20450;-83
2022/02/27 02:08:24;;;;;;;17.07;6.80;;;2.20;99.90;;;;;;5078089;28;20443;-78
2022/02/27 02:10:53;;;;;;;15.07;7.10;;;2.20;99.90;;;;;;5077538;28;20493;-78
2022/02/27 02:13:19;;;;;;;16.67;7.17;;;2.10;99.90;;;;;;5077911;28;20438;-81
2022/02/27 02:15:55;;;;;;;15.57;6.60;;;2.10;99.90;;;;;;5077966;28;20813;-77
2022/02/27 02:18:23;;;;;;;11.97;6.20;;;2.10;99.90;;;;;;5078501;28;20457;-78
2022/02/27 02:20:53;;;;;;;20.42;9.02;;;2.10;99.90;;;;;;5076428;28;20791;-78
2022/02/27 02:23:20;;;;;;;13.90;6.90;;;2.20;99.90;;;;;;5078116;28;20206;-77
2022/02/27 02:25:46;;;;;;;12.60;6.63;;;2.20;99.90;;;;;;5077221;28;20458;-78
2022/02/27 02:28:14;;;;;;;18.93;6.20;;;2.20;99.90;;;;;;5077301;28;20483;-78
2022/02/27 02:30:41;;;;;;;12.33;5.97;;;2.10;99.90;;;;;;5077367;28;20960;-78
2022/02/27 02:33:07;;;;;;;15.73;6.00;;;2.10;99.90;;;;;;5077932;28;20445;-77
2022/02/27 02:35:34;;;;;;;12.70;5.87;;;2.00;99.90;;;;;;5077370;28;20914;-78
2022/02/27 02:38:04;;;;;;;16.40;6.67;;;2.00;99.90;;;;;;5077887;28;20443;-81
2022/02/27 02:40:31;;;;;;;17.53;5.90;;;2.00;99.90;;;;;;5077662;28;20865;-78
2022/02/27 02:42:58;;;;;;;12.60;5.70;;;1.90;99.90;;;;;;5077624;28;20434;-77
2022/02/27 02:45:25;;;;;;;17.35;8.35;;;1.90;99.90;;;;;;5076622;28;20439;-81
2022/02/27 02:47:55;;;;;;;11.47;6.13;;;2.00;99.90;;;;;;5077134;28;20213;-79
2022/02/27 02:50:23;;;;;;;19.33;6.70;;;1.90;99.90;;;;;;5077342;28;20470;-81
2022/02/27 02:52:50;;;;;;;11.97;6.27;;;1.90;99.90;;;;;;5077298;28;20459;-81
2022/02/27 02:55:29;;;;;;;13.30;6.33;;;1.90;99.90;;;;;;5078000;28;20439;-84
2022/02/27 02:57:56;;;;;;;13.07;5.60;;;1.80;99.90;;;;;;5076760;28;20450;-79
2022/02/27 03:00:23;;;;;;;15.53;5.97;;;1.80;99.90;;;;;;5076616;28;20462;-83
2022/02/27 03:02:50;;;;;;;11.30;5.50;;;1.70;99.90;;;;;;5076866;28;20449;-79
2022/02/27 03:05:17;;;;;;;17.30;6.17;;;1.70;99.90;;;;;;5077093;28;20457;-78
2022/02/27 03:07:44;;;;;;;16.90;6.10;;;1.80;99.90;;;;;;5076601;28;20846;-78
2022/02/27 03:10:11;;;;;;;14.10;7.82;;;1.70;99.90;;;;;;5075562;28;20914;-78
2022/02/27 03:12:40;;;;;;;13.53;6.20;;;1.90;99.90;;;;;;5076251;28;20186;-78
2022/02/27 03:15:08;;;;;;;11.87;6.17;;;2.00;99.90;;;;;;5077548;28;20446;-80
2022/02/27 03:17:36;;;;;;;16.33;5.77;;;1.90;99.90;;;;;;5078159;28;20454;-78
2022/02/27 03:20:03;;;;;;;14.63;5.70;;;1.90;99.90;;;;;;5078131;28;20439;-78
2022/02/27 03:22:30;;;;;;;12.90;5.87;;;1.90;99.90;;;;;;5079615;28;20458;-78
2022/02/27 03:24:57;;;;;;;11.97;6.10;;;1.90;99.90;;;;;;5076629;28;20906;-78
2022/02/27 03:27:24;;;;;;;14.77;5.37;;;1.80;99.90;;;;;;5076372;28;20453;-78
2022/02/27 03:29:52;;;;;;;16.80;6.73;;;1.80;99.90;;;;;;5077379;28;20430;-80
2022/02/27 03:32:19;;;;;;;20.20;5.87;;;1.70;99.90;;;;;;5078018;28;20557;-78
2022/02/27 03:34:46;;;;;;;15.00;5.43;;;1.70;99.90;;;;;;5078186;28;20469;-80
2022/02/27 03:37:13;;;;;;;13.43;5.73;;;1.70;99.90;;;;;;5076599;28;20446;-80
2022/02/27 03:39:42;;;;;;;11.37;5.70;;;1.70;99.90;;;;;;5077284;28;20449;-82
2022/02/27 03:42:09;;;;;;;14.73;5.60;;;1.70;99.90;;;;;;5078088;28;20438;-81
2022/02/27 03:44:45;;;;;;;11.77;5.20;;;1.60;99.90;;;;;;5079252;28;20803;-84
2022/02/27 03:47:19;;;;;;;10.07;5.40;;;1.60;99.90;;;;;;5075886;28;20967;-81
2022/02/27 03:49:48;;;;;;;16.97;5.00;;;1.60;99.90;;;;;;5076300;28;20434;-80
2022/02/27 03:52:17;;;;;;;15.60;5.07;;;1.60;99.90;;;;;;5075311;28;20540;-84
2022/02/27 03:54:44;;;;;;;18.87;5.47;;;1.60;99.90;;;;;;5074540;28;20451;-84
2022/02/27 03:57:11;;;;;;;11.57;4.90;;;1.60;99.90;;;;;;5075491;28;20454;-79
2022/02/27 03:59:38;;;;;;;12.37;5.03;;;1.50;99.90;;;;;;5075272;28;20438;-78
2022/02/27 04:02:06;;;;;;;14.27;5.03;;;1.50;99.90;;;;;;5075655;28;20451;-79
2022/02/27 04:04:36;;;;;;;13.97;5.33;;;1.50;99.90;;;;;;5075883;28;20531;-78
2022/02/27 04:07:03;;;;;;;13.47;5.77;;;1.50;99.90;;;;;;5075844;28;20443;-77
2022/02/27 04:09:31;;;;;;;10.77;5.27;;;1.50;99.90;;;;;;5075601;28;20450;-78
2022/02/27 04:11:57;;;;;;;16.90;5.80;;;1.50;99.90;;;;;;5077081;28;20490;-78
2022/02/27 04:14:24;;;;;;;10.57;4.70;;;1.40;99.90;;;;;;5077323;28;20446;-78
2022/02/27 04:16:51;;;;;;;14.57;5.30;;;1.40;99.90;;;;;;5075223;28;20446;-78
2022/02/27 04:19:18;;;;;;;14.97;4.80;;;1.40;99.90;;;;;;5075876;28;20446;-78
2022/02/27 04:21:47;;;;;;;11.23;4.93;;;1.40;99.90;;;;;;5076042;28;20465;-78
2022/02/27 04:24:15;;;;;;;14.15;6.35;;;1.40;99.90;;;;;;5074233;28;20485;-78
2022/02/27 04:26:41;;;;;;;16.20;5.03;;;1.60;99.90;;;;;;5075863;28;20197;-78
2022/02/27 04:29:09;;;;;;;11.17;5.07;;;1.60;99.90;;;;;;5075314;28;20438;-78
2022/02/27 04:31:36;;;;;;;12.73;4.87;;;1.60;99.90;;;;;;5075276;28;20478;-78
2022/02/27 04:34:12;;;;;;;12.67;4.90;;;1.50;99.90;;;;;;5076325;28;20443;-83
2022/02/27 04:36:40;;;;;;;9.33;4.57;;;1.40;99.90;;;;;;5077372;28;20442;-84
2022/02/27 04:39:08;;;;;;;8.57;4.20;;;1.40;99.90;;;;;;5075487;28;21022;-82
2022/02/27 04:41:41;;;;;;;11.20;4.27;;;1.30;99.90;;;;;;5075839;28;20435;-78
2022/02/27 04:44:08;;;;;;;9.13;4.23;;;1.30;99.90;;;;;;5075671;28;20972;-81
2022/02/27 04:46:34;;;;;;;12.60;4.40;;;1.30;99.90;;;;;;5075895;28;20516;-84
2022/02/27 04:49:01;;;;;;;9.70;4.70;;;1.20;99.90;;;;;;5075474;28;20450;-78
2022/02/27 04:51:28;;;;;;;12.77;5.17;;;1.20;99.90;;;;;;5075891;28;20478;-78
2022/02/27 04:53:55;;;;;;;15.60;4.47;;;1.10;99.90;;;;;;5075099;28;20521;-78
2022/02/27 04:56:23;;;;;;;17.17;5.37;;;1.20;99.90;;;;;;5075882;28;20446;-78
2022/02/27 04:58:50;;;;;;;15.47;4.50;;;1.20;99.90;;;;;;5075762;28;20442;-78
2022/02/27 05:01:17;;;;;;;8.63;3.70;;;1.10;99.90;;;;;;5075661;28;20450;-78
2022/02/27 05:03:44;;;;;;;16.80;5.20;;;1.10;99.90;;;;;;5075746;28;20430;-78
2022/02/27 05:06:11;;;;;;;11.90;4.00;;;1.10;99.90;;;;;;5075102;28;20897;-78
2022/02/27 05:08:38;;;;;;;9.77;4.30;;;1.10;99.90;;;;;;5075063;28;20449;-79
2022/02/27 05:11:05;;;;;;;12.43;4.10;;;1.10;99.90;;;;;;5075434;28;20446;-78
2022/02/27 05:13:34;;;;;;;13.48;5.22;;;1.10;99.90;;;;;;5075788;28;20443;-78
2022/02/27 05:16:00;;;;;;;14.93;4.23;;;1.20;99.90;;;;;;5074982;28;20201;-78
2022/02/27 05:18:28;;;;;;;14.43;4.97;;;1.20;99.90;;;;;;5075278;28;20449;-78
2022/02/27 05:20:55;;;;;;;10.63;4.47;;;1.20;99.90;;;;;;5075415;28;20431;-83
2022/02/27 05:23:27;;;;;;;12.53;4.83;;;1.20;99.90;;;;;;5074484;28;20902;-82
2022/02/27 05:25:58;;;;;;;8.17;4.13;;;1.30;99.90;;;;;;5075009;28;20450;-84
2022/02/27 05:28:25;;;;;;;10.50;4.40;;;1.20;99.90;;;;;;5075094;28;20450;-78
2022/02/27 05:30:57;;;;;;;14.43;4.23;;;1.20;99.90;;;;;;5078629;28;20496;-82
2022/02/27 05:33:28;;;;;;;13.10;3.93;;;1.20;99.90;;;;;;5077594;28;20447;-80
2022/02/27 05:35:56;;;;;;;13.47;4.50;;;1.10;99.90;;;;;;5078250;28;20806;-79
2022/02/27 05:38:23;;;;;;;11.93;4.40;;;1.20;99.90;;;;;;5078370;28;20944;-78
2022/02/27 05:40:50;;;;;;;12.90;4.47;;;1.10;99.90;;;;;;5078655;28;20836;-78
2022/02/27 05:43:17;;;;;;;12.70;4.20;;;1.10;99.90;;;;;;5079176;28;20438;-78
2022/02/27 05:45:44;;;;;;;10.80;4.17;;;1.10;99.90;;;;;;5078291;28;20459;-78
2022/02/27 05:48:12;;;;;;;10.17;3.60;;;1.00;99.90;;;;;;5079011;28;20435;-78
2022/02/27 05:50:40;;;;;;;10.73;4.20;;;1.00;99.90;;;;;;5078323;28;20445;-78
2022/02/27 05:53:08;;;;;;;14.70;4.13;;;1.00;99.90;;;;;;5078594;28;20501;-78
2022/02/27 05:55:35;;;;;;;10.93;4.37;;;0.90;99.90;;;;;;5078785;28;20453;-79
2022/02/27 05:58:03;;;;;;;10.03;3.63;;;1.00;99.90;;;;;;5078830;28;20450;-78
2022/02/27 06:00:30;;;;;;;10.20;3.73;;;1.00;99.90;;;;;;5077832;28;20462;-78
2022/02/27 06:02:57;;;;;;;12.35;5.28;;;0.90;99.90;;;;;;5093292;28;20433;-78
2022/02/27 06:05:25;;;;;;;14.03;4.20;;;1.00;99.90;;;;;;5097701;28;20558;-79
2022/02/27 06:07:52;;;;;;;12.57;4.27;;;1.10;99.90;;;;;;5098432;28;20430;-78
2022/02/27 06:10:19;;;;;;;10.07;3.73;;;1.00;99.90;;;;;;5098440;28;20449;-80
2022/02/27 06:12:50;;;;;;;10.27;4.50;;;0.90;99.90;;;;;;5098365;28;20504;-79
2022/02/27 06:15:17;;;;;;;8.53;3.87;;;0.90;99.90;;;;;;5099250;28;20445;-84
2022/02/27 06:17:44;;;;;;;13.60;3.97;;;0.90;99.90;;;;;;5097575;28;20445;-82
2022/02/27 06:20:13;;;;;;;10.73;4.00;;;0.90;99.90;;;;;;5097338;28;20433;-80
2022/02/27 06:22:44;;;;;;;11.50;3.87;;;0.90;99.90;;;;;;5099126;28;20441;-78
2022/02/27 06:25:12;;;;;;;9.97;4.20;;;0.90;99.90;;;;;;5097871;28;20812;-78
2022/02/27 06:27:42;;;;;;;6.43;3.43;;;0.80;99.90;;;;;;5098803;28;20425;-79
2022/02/27 06:30:11;;;;;;;9.30;3.93;;;0.80;99.90;;;;;;5098167;28;20437;-78
2022/02/27 06:32:39;;;;;;;11.00;3.33;;;0.80;99.90;;;;;;5098743;28;20521;-78
2022/02/27 06:35:07;;;;;;;12.10;4.33;;;0.80;99.90;;;;;;5098224;28;20792;-79
2022/02/27 06:37:35;;;;;;;9.27;4.03;;;0.80;99.90;;;;;;5098451;28;20920;-79
2022/02/27 06:40:06;;;;;;;7.23;3.60;;;0.80;99.90;;;;;;5097882;28;20465;-79
2022/02/27 06:42:33;;;;;;;12.30;3.63;;;0.80;99.90;;;;;;5098684;28;20446;-81
2022/02/27 06:45:00;;;;;;;8.37;3.60;;;0.80;99.90;;;;;;5097824;28;20964;-78
2022/02/27 06:47:27;;;;;;;12.57;3.90;;;0.80;99.90;;;;;;5099414;28;20880;-78
2022/02/27 06:49:54;;;;;;;6.97;3.50;;;0.70;99.90;;;;;;5097800;28;20438;-78
2022/02/27 06:52:20;;;;;;;14.63;4.78;;;0.80;99.90;;;;;;5097246;28;20446;-78
2022/02/27 06:54:48;;;;;;;14.20;4.10;;;0.80;99.90;;;;;;5099401;28;20194;-78
2022/02/27 06:57:18;;;;;;;11.40;3.57;;;0.90;99.90;;;;;;5098280;28;20438;-82
2022/02/27 06:59:45;;;;;;;12.10;3.60;;;0.90;99.90;;;;;;5097500;28;20453;-78
2022/02/27 07:02:12;;;;;;;14.17;3.97;;;0.90;99.90;;;;;;5097517;28;20426;-78
2022/02/27 07:04:42;;;;;;;12.00;4.20;;;0.90;99.90;;;;;;5098331;28;20453;-83
2022/02/27 07:07:08;;;;;;;11.20;3.63;;;0.90;99.90;;;;;;5097431;28;20430;-83
2022/02/27 07:09:36;;;;;;;13.97;3.80;;;0.90;99.90;;;;;;5096798;28;20450;-85
2022/02/27 07:12:03;;;;;;;9.93;3.43;;;1.00;99.90;;;;;;5096591;28;20473;-83
2022/02/27 07:14:32;;;;;;;7.33;3.30;;;1.00;99.90;;;;;;5096317;28;20478;-78
2022/02/27 07:16:59;;;;;;;11.93;4.72;;;1.00;99.90;;;;;;5096993;28;20419;-78
2022/02/27 07:19:26;;;;;;;8.83;3.80;;;1.10;99.90;;;;;;5096804;28;20209;-79
2022/02/27 07:21:53;;;;;;;8.37;3.40;;;1.10;99.90;;;;;;5097233;28;20831;-79
2022/02/27 07:24:20;;;;;;;6.40;3.00;;;1.20;99.90;;;;;;5097274;28;20963;-78
2022/02/27 07:26:46;;;;;;;7.07;3.30;;;1.20;99.90;;;;;;5097086;28;20798;-79
2022/02/27 07:29:13;;;;;;;7.33;3.60;;;1.40;99.90;;;;;;5097155;28;20441;-79
2022/02/27 07:31:41;;;;;;;8.07;3.43;;;1.40;99.90;;;;;;5097185;28;20446;-78
2022/02/27 07:34:08;;;;;;;6.20;3.30;;;1.50;99.90;;;;;;5097931;28;20434;-78
2022/02/27 07:36:35;;;;;;;12.00;3.80;;;1.50;99.90;;;;;;5097002;28;20438;-79
2022/02/27 07:39:04;;;;;;;10.57;3.80;;;1.50;99.90;;;;;;5096943;28;20426;-78
2022/02/27 07:41:33;;;;;;;11.87;3.90;;;1.60;99.90;;;;;;5096683;28;20441;-78
2022/02/27 07:44:01;;;;;;;8.73;4.07;;;1.60;99.90;;;;;;5097816;28;20229;-78
2022/02/27 07:46:28;;;;;;;12.60;3.70;;;1.70;99.90;;;;;;5096763;28;21023;-78
2022/02/27 07:48:57;;;;;;;7.20;3.13;;;1.90;99.90;;;;;;5097511;28;20472;-79
2022/02/27 07:51:27;;;;;;;8.83;3.10;;;1.90;99.90;;;;;;5085839;28;20947;-81
2022/02/27 07:54:00;;;;;;;6.40;3.00;;;2.00;99.90;;;;;;5085931;28;20833;-79
2022/02/27 07:56:27;;;;;;;10.00;3.70;;;2.00;99.90;;;;;;5088400;28;21812;-79
2022/02/27 07:59:01;;;;;;;5.53;2.80;;;2.10;99.90;;;;;;5088604;28;20456;-83
2022/02/27 08:01:29;;;;;;;7.37;3.00;;;2.20;99.90;;;;;;5089084;28;20436;-83
2022/02/27 08:03:58;;;;;;;9.20;2.80;;;2.30;99.90;;;;;;5085355;28;20426;-78
2022/02/27 08:06:26;;;;;;;9.00;3.37;;;2.40;99.90;;;;;;5096330;28;20433;-80
2022/02/27 08:08:53;;;;;;;8.60;3.20;;;2.60;99.90;;;;;;5097507;28;20418;-80
2022/02/27 08:11:20;;;;;;;8.63;2.80;;;2.60;99.90;;;;;;5096552;28;20525;-81
2022/02/27 08:13:47;;;;;;;8.50;3.30;;;2.60;99.90;;;;;;5096719;28;20493;-78
2022/02/27 08:16:14;;;;;;;9.57;3.07;;;2.70;99.90;;;;;;5095843;28;20460;-78
2022/02/27 08:18:42;;;;;;;6.73;2.80;;;2.70;99.90;;;;;;5097224;28;20505;-78
2022/02/27 08:21:11;;;;;;;6.27;3.03;;;2.90;99.90;;;;;;5096440;28;20803;-78
2022/02/27 08:23:39;;;;;;;5.73;2.77;;;3.00;99.90;;;;;;5096343;28;20442;-80
2022/02/27 08:26:06;;;;;;;8.43;2.70;;;3.10;99.90;;;;;;5096838;28;20445;-80
2022/02/27 08:28:33;;;;;;;6.03;2.40;;;3.20;99.90;;;;;;5083530;28;20431;-78
2022/02/27 08:31:01;;;;;;;7.25;2.60;;;3.30;99.90;;;;;;5085322;28;20436;-79
2022/02/27 08:33:28;;;;;;;8.20;3.17;;;3.30;99.90;;;;;;5086656;28;20224;-78
2022/02/27 08:35:56;;;;;;;7.83;2.60;;;3.40;99.90;;;;;;5077999;28;20447;-78
2022/02/27 08:38:25;;;;;;;8.70;2.80;;;3.40;99.90;;;;;;5077457;28;20454;-78
2022/02/27 08:40:52;;;;;;;5.23;2.63;;;3.50;99.90;;;;;;5075983;28;20438;-80
2022/02/27 08:43:20;;;;;;;7.90;3.70;;;3.60;99.90;;;;;;5078608;28;20967;-80
2022/02/27 08:45:46;;;;;;;5.57;2.60;;;3.60;99.90;;;;;;5095976;28;20457;-81
2022/02/27 08:48:13;;;;;;;6.10;2.57;;;3.70;99.90;;;;;;5089277;28;20443;-78
2022/02/27 08:50:40;;;;;;;4.23;2.50;;;3.70;99.90;;;;;;5092926;28;20456;-86
2022/02/27 08:53:07;;;;;;;6.53;2.07;;;3.80;99.90;;;;;;5085504;28;20477;-78
2022/02/27 08:55:35;;;;;;;8.67;2.30;;;3.90;99.90;;;;;;5078854;28;20453;-78
2022/02/27 08:58:02;;;;;;;6.27;2.77;;;4.00;99.90;;;;;;5080510;28;20446;-85
2022/02/27 09:00:29;;;;;;;5.70;2.50;;;4.10;99.90;;;;;;5077682;28;20438;-79
2022/02/27 09:02:55;;;;;;;11.30;3.60;;;4.20;99.90;;;;;;5080038;28;20817;-86
2022/02/27 09:05:22;;;;;;;5.37;2.73;;;4.30;99.90;;;;;;5085056;28;20836;-79
2022/02/27 09:07:49;;;;;;;11.80;3.40;;;4.40;99.90;;;;;;5085954;28;20454;-78
2022/02/27 09:10:16;;;;;;;3.50;2.20;;;4.50;99.90;;;;;;5085758;28;20430;-79
2022/02/27 09:12:45;;;;;;;6.60;2.40;;;4.60;99.90;;;;;;5081457;28;20470;-79
2022/02/27 09:15:18;;;;;;;6.50;2.83;;;4.80;99.90;;;;;;5082648;28;20442;-78
2022/02/27 09:17:45;;;;;;;9.60;2.40;;;4.80;99.90;;;;;;5082122;28;20462;-80
2022/02/27 09:20:14;;;;;;;4.77;2.23;;;4.90;99.90;;;;;;5081844;28;20201;-82
2022/02/27 09:22:41;;;;;;;7.95;3.25;;;4.90;99.90;;;;;;5081307;28;20434;-82
2022/02/27 09:25:08;;;;;;;5.07;2.40;;;5.20;99.90;;;;;;5081504;28;20198;-82
2022/02/27 09:27:35;;;;;;;5.27;2.43;;;5.20;99.90;;;;;;5080852;28;20206;-78
2022/02/27 09:30:04;;;;;;;4.53;2.60;;;5.40;99.90;;;;;;5086091;28;20197;-79
2022/02/27 09:32:31;;;;;;;4.80;2.40;;;5.40;99.90;;;;;;5094125;28;20665;-77
2022/02/27 09:35:01;;;;;;;5.33;2.03;;;5.60;99.90;;;;;;5091765;28;20194;-77
2022/02/27 09:37:34;;;;;;;3.87;2.00;;;5.70;99.90;;;;;;5089174;28;20225;-78
2022/02/27 09:40:01;;;;;;;6.70;2.53;;;5.80;99.90;;;;;;5088840;28;20229;-77
2022/02/27 09:42:31;;;;;;;5.63;1.73;;;5.90;99.90;;;;;;5091203;28;20186;-79
2022/02/27 09:44:58;;;;;;;4.93;1.93;;;6.00;99.90;;;;;;5088678;28;20212;-79
2022/02/27 09:47:28;;;;;;;4.83;2.00;;;6.10;99.90;;;;;;5095885;28;20205;-80
2022/02/27 09:49:55;;;;;;;3.42;1.90;;;6.20;99.90;;;;;;5106210;28;20407;-80
2022/02/27 09:52:40;;;;;;;5.77;1.80;;;6.30;99.90;;;;;;5099130;28;20190;-79
2022/02/27 09:55:08;;;;;;;1.93;1.40;;;6.40;99.90;;;;;;5097672;28;20200;-79
2022/02/27 09:57:35;;;;;;;2.97;1.50;;;6.50;99.90;;;;;;5089688;28;20186;-79
2022/02/27 10:00:05;;;;;;;6.30;2.00;;;6.60;99.90;;;;;;5096345;28;20198;-79
2022/02/27 10:02:33;;;;;;;5.47;2.10;;;6.60;99.90;;;;;;5097665;28;20216;-79
2022/02/27 10:05:02;;;;;;;2.10;1.50;;;6.70;99.90;;;;;;5090547;28;20253;-82
2022/02/27 10:07:29;;;;;;;3.33;2.00;;;6.80;99.90;;;;;;5088046;28;20543;-79
2022/02/27 10:10:05;;;;;;;5.00;1.87;;;6.90;99.90;;;;;;5080560;28;20206;-79
2022/02/27 10:12:32;;;;;;;4.53;1.30;;;6.90;99.90;;;;;;5081754;28;20209;-79
2022/02/27 10:15:01;;;;;;;1.80;1.30;;;6.90;99.90;;;;;;5085909;28;20201;-80
2022/02/27 10:17:31;;;;;;;4.27;1.80;;;7.00;99.90;;;;;;5104788;28;20197;-79
2022/02/27 10:19:59;;;;;;;1.60;1.33;;;7.10;99.90;;;;;;5106783;28;20180;-79
2022/02/27 10:22:31;;;;;;;5.20;1.50;;;7.00;99.90;;;;;;5105079;28;20207;-79
2022/02/27 10:24:59;;;;;;;2.37;1.70;;;7.00;99.90;;;;;;5103983;28;20209;-79
2022/02/27 10:27:40;;;;;;;4.97;1.83;;;7.20;99.90;;;;;;5104312;28;20181;-79
2022/02/27 10:30:17;;;;;;;2.97;1.63;;;7.30;99.90;;;;;;5103480;28;20208;-80
2022/02/27 10:32:55;;;;;;;4.53;2.03;;;7.30;99.90;;;;;;5103588;28;20189;-80
2022/02/27 10:35:38;;;;;;;2.60;1.60;;;7.40;99.90;;;;;;5105076;28;20197;-79
2022/02/27 10:38:05;;;;;;;4.53;1.60;;;7.40;99.90;;;;;;5104048;28;20288;-79
2022/02/27 10:40:33;;;;;;;3.03;1.50;;;7.50;99.90;;;;;;5104189;28;20208;-79
2022/02/27 10:43:01;;;;;;;3.10;1.90;;;7.60;99.90;;;;;;5103905;28;20438;-80
2022/02/27 10:45:28;;;;;;;4.00;1.63;;;7.80;99.90;;;;;;5102194;28;20212;-79
2022/02/27 10:48:03;;;;;;;4.30;1.80;;;7.90;99.90;;;;;;5105857;28;20295;-78
2022/02/27 10:50:30;;;;;;;2.67;1.47;;;8.00;99.90;;;;;;5104681;28;20201;-79
2022/02/27 10:52:59;;;;;;;3.63;1.70;;;8.10;99.90;;;;;;5104526;28;20225;-79
2022/02/27 10:55:27;;;;;;;1.93;1.17;;;8.10;99.90;;;;;;5104259;28;20189;-79
2022/02/27 10:57:55;;;;;;;3.20;1.70;;;8.20;99.90;;;;;;5103111;28;20733;-79
2022/02/27 11:00:23;;;;;;;5.80;1.97;;;8.10;99.90;;;;;;5105924;28;20228;-79
2022/02/27 11:02:52;;;;;;;4.53;1.30;;;8.10;99.90;;;;;;5104065;28;20205;-79
2022/02/27 11:05:23;;;;;;;2.27;1.50;;;8.20;99.90;;;;;;5101118;28;20292;-79
2022/02/27 11:07:55;;;;;;;2.73;1.30;;;8.20;99.90;;;;;;5106072;28;20185;-79
2022/02/27 11:10:28;;;;;;;3.00;1.40;;;8.30;99.90;;;;;;5106219;28;20214;-79
2022/02/27 11:12:57;;;;;;;2.53;1.20;;;8.40;99.90;;;;;;5103897;28;20205;-79
2022/02/27 11:15:24;;;;;;;1.20;1.10;;;8.50;99.90;;;;;;5103716;28;20212;-79
2022/02/27 11:17:52;;;;;;;2.83;1.30;;;8.60;99.90;;;;;;5105068;28;20211;-79
2022/02/27 11:20:21;;;;;;;2.57;2.00;;;8.70;99.90;;;;;;5103067;28;20180;-79
2022/02/27 11:22:48;;;;;;;3.37;1.40;;;8.70;99.90;;;;;;5104450;28;20604;-80
2022/02/27 11:25:16;;;;;;;1.63;1.10;;;8.80;99.90;;;;;;5100526;28;20216;-80
2022/02/27 11:27:56;;;;;;;3.57;1.50;;;8.80;99.90;;;;;;5100998;28;20186;-79
2022/02/27 11:30:24;;;;;;;2.73;1.30;;;8.80;99.90;;;;;;5103978;28;20211;-79
2022/02/27 11:32:57;;;;;;;1.77;1.00;;;8.80;99.90;;;;;;5103674;28;20212;-80
2022/02/27 11:35:42;;;;;;;2.53;1.30;;;8.90;99.90;;;;;;5108926;28;20196;-79
2022/02/27 11:38:32;;;;;;;2.03;1.47;;;9.00;99.90;;;;;;5108235;28;20204;-79
2022/02/27 11:41:01;;;;;;;2.50;1.40;;;9.00;99.90;;;;;;5112654;28;20185;-79
2022/02/27 11:43:43;;;;;;;2.10;1.20;;;9.10;99.90;;;;;;5108805;28;20205;-80
2022/02/27 11:46:11;;;;;;;1.87;1.10;;;9.20;99.80;;;;;;5109982;28;20255;-79
2022/02/27 11:49:02;;;;;;;2.50;1.30;;;9.30;99.90;;;;;;5110741;28;20192;-79
2022/02/27 11:52:01;;;;;;;1.40;1.00;;;9.40;99.90;;;;;;5110030;28;20193;-79
2022/02/27 11:54:58;;;;;;;2.23;1.00;;;9.50;99.70;;;;;;5111172;28;20213;-79
2022/02/27 11:57:27;;;;;;;2.80;1.27;;;9.60;99.50;;;;;;5111335;28;20243;-79
2022/02/27 12:00:13;;;;;;;2.53;1.30;;;9.70;99.70;;;;;;5111091;28;20209;-79
2022/02/27 12:02:44;;;;;;;1.23;1.13;;;9.70;99.60;;;;;;5109645;28;20177;-79
2022/02/27 12:05:16;;;;;;;1.20;1.10;;;9.80;99.80;;;;;;5107892;28;20253;-79
2022/02/27 12:08:08;;;;;;;1.47;1.00;;;10.00;98.50;;;;;;5108623;28;20190;-79
2022/02/27 12:10:54;;;;;;;1.83;1.70;;;10.00;98.30;;;;;;5100087;28;20204;-80
2022/02/27 12:13:28;;;;;;;1.60;1.10;;;9.90;98.90;;;;;;5106713;28;20268;-79
2022/02/27 12:16:11;;;;;;;2.70;1.20;;;9.90;99.30;;;;;;5107122;28;20227;-79
2022/02/27 12:18:56;;;;;;;3.00;1.30;;;10.00;98.20;;;;;;5106994;28;20173;-79
2022/02/27 12:21:41;;;;;;;1.93;1.10;;;10.00;98.80;;;;;;5107719;28;20181;-79
2022/02/27 12:24:09;;;;;;;1.90;1.17;;;10.20;98.50;;;;;;5105284;28;20212;-79
2022/02/27 12:26:48;;;;;;;1.90;1.10;;;10.20;98.30;;;;;;5089375;28;20201;-79
2022/02/27 12:29:35;;;;;;;1.83;1.00;;;10.20;97.90;;;;;;5096069;28;20196;-79
2022/02/27 12:32:37;;;;;;;1.10;1.00;;;10.40;98.30;;;;;;5088939;28;20288;-79
2022/02/27 12:35:04;;;;;;;1.30;1.20;;;10.60;98.10;;;;;;5089346;28;20240;-86
2022/02/27 12:37:34;;;;;;;2.33;1.30;;;10.60;97.80;;;;;;5091671;28;20194;-81
2022/02/27 12:40:03;;;;;;;4.63;1.23;;;10.60;97.20;;;;;;5086704;28;20271;-81
2022/02/27 12:42:33;;;;;;;1.43;1.00;;;10.50;97.00;;;;;;5083358;28;20212;-80
2022/02/27 12:45:01;;;;;;;3.85;1.10;;;10.50;97.10;;;;;;5081389;28;20431;-81
2022/02/27 12:47:32;;;;;;;1.97;1.20;;;10.60;97.20;;;;;;5086698;28;20214;-82
2022/02/27 12:50:20;;;;;;;2.47;1.10;;;10.70;96.10;;;;;;5078512;28;20280;-82
2022/02/27 12:52:48;;;;;;;1.50;1.30;;;10.70;96.90;;;;;;5073577;28;20205;-82
2022/02/27 12:55:20;;;;;;;1.93;1.30;;;10.70;96.90;;;;;;5073544;28;20277;-90
2022/02/27 12:57:49;;;;;;;1.40;1.00;;;10.90;97.10;;;;;;5073130;28;20190;-82
2022/02/27 13:00:19;;;;;;;1.00;0.80;;;10.80;96.90;;;;;;5075894;28;20217;-82